This is the latest recevied weather packets stored in our database for station/object K3MV-13. If no packets are shown the sender has not sent any weather packets the latest 1 day(s).
| Time | Temp. | Humidity | Pressure | Rain* | Wind** | Luminosity | Snow |
|---|---|---|---|---|---|---|---|
| 1777991341 | 20° C | 53% | 1011.4 hPa | 0 mm | 0.89 m/s, 188° | 247 W/m² | - |
| 1777991039 | 19.44° C | 51% | 1011.3 hPa | 0 mm | 2.24 m/s, 207° | 408 W/m² | - |
| 1777990736 | 18.89° C | 54% | 1011.4 hPa | 0 mm | 2.68 m/s, 229° | 431 W/m² | - |
| 1777990433 | 18.89° C | 53% | 1011.5 hPa | 0 mm | 3.58 m/s, 191° | 320 W/m² | - |
| 1777990129 | 18.89° C | 53% | 1011.4 hPa | 0 mm | 0.89 m/s, 200° | 228 W/m² | - |
| 1777989826 | 18.89° C | 53% | 1011.6 hPa | 0 mm | 1.34 m/s, 192° | 215 W/m² | - |
| 1777989523 | 19.44° C | 53% | 1011.3 hPa | 0 mm | 1.79 m/s, 244° | 281 W/m² | - |
| 1777989220 | 18.89° C | 54% | 1010.9 hPa | 0 mm | 1.34 m/s, 225° | 341 W/m² | - |
| 1777988916 | 18.89° C | 54% | 1011.3 hPa | 0 mm | 0.89 m/s, 155° | 171 W/m² | - |
| 1777988613 | 19.44° C | 52% | 1011.2 hPa | 0 mm | 1.79 m/s, 204° | 396 W/m² | - |
| 1777988309 | 19.44° C | 52% | 1011 hPa | 0 mm | 0.45 m/s, 190° | 324 W/m² | - |
| 1777988006 | 19.44° C | 54% | 1011 hPa | 0 mm | 0.45 m/s, 201° | 494 W/m² | - |
| 1777987702 | 18.89° C | 55% | 1011 hPa | 0 mm | 0.89 m/s, 263° | 448 W/m² | - |
| 1777987399 | 18.89° C | 54% | 1010.9 hPa | 0 mm | 1.34 m/s, 267° | 407 W/m² | - |
| 1777987096 | 18.89° C | 55% | 1010.9 hPa | 0 mm | 1.79 m/s, 285° | 387 W/m² | - |
| 1777986794 | 18.33° C | 55% | 1011 hPa | 0 mm | 1.34 m/s, 258° | 402 W/m² | - |
| 1777986491 | 17.78° C | 57% | 1010.9 hPa | 0 mm | 0.89 m/s, 248° | 385 W/m² | - |
| 1777986189 | 17.78° C | 57% | 1011.2 hPa | 0 mm | 1.79 m/s, 276° | 351 W/m² | - |
| 1777985886 | 17.22° C | 57% | 1011.3 hPa | 0 mm | 0.89 m/s, 220° | 292 W/m² | - |
| 1777985584 | 17.22° C | 58% | 1011 hPa | 0 mm | 0.89 m/s, 248° | 254 W/m² | - |
| 1777985280 | 17.22° C | 57% | 1011.2 hPa | 0 mm | 2.68 m/s, 183° | 187 W/m² | - |
| 1777984977 | 17.78° C | 56% | 1011.4 hPa | 0 mm | 1.34 m/s, 116° | 124 W/m² | - |
| 1777984672 | 17.78° C | 56% | 1011.4 hPa | 0 mm | 1.34 m/s, 237° | 358 W/m² | - |
| 1777984369 | 17.78° C | 56% | 1011.4 hPa | 0 mm | 1.34 m/s, 238° | 347 W/m² | - |
| 1777984065 | 17.22° C | 57% | 1011.4 hPa | 0 mm | 1.34 m/s, 284° | 283 W/m² | - |
* Rain latest hour (hover to see other rain measurements)
** Current wind speed in m/s (hover to see current wind gust speed)